CPH weather

Copenhagen Kastrup Airport
Copenhagen, Capital Region, Denmark

Public forecast

Using degrees Celsius for public forecast. Weather courtesy of forecast.io.

METAR (pilot weather report)

Retrieved 2018/12/15 12:20 UTC (36 minutes ago):

EKCH 151220Z 08011KT 9999 -DZRA BKN007 03/02 Q1030 TEMPO BKN020

TAF (pilot weather forecast)

Retrieved 2018/12/15 12:00 UTC (56 minutes ago):

TAF EKCH 151054Z 1512/1612 09012KT 9999 BKN020 TEMPO 1512/1524 4000 -SHRASN BKN008 BKN012TCU BECMG 1522/1524 13015KT TEMPO 1600/1612 13015G25KT 4000 -SHRASN BKN008 BKN012TCU